Time;durP1;ratioP1;P1;durP2;ratioP2;P2;SDS_P1;SDS_P2;PMS_P1;PMS_P2;Temp;Humidity;BMP_temperature;BMP_pressure;BME280_temperature;BME280_humidity;BME280_pressure;Samples;Min_cycle;Max_cycle;Signal;HPM_P1;HPM_P2
2022/05/19 00:01:51;;;;;;;4.30;2.78;;;;;;;9.57;48.47;99622.44;5034327;28;20043;-51
2022/05/19 00:04:16;;;;;;;3.47;2.17;;;;;;;9.54;48.13;99615.53;5032005;28;20491;-51
2022/05/19 00:06:42;;;;;;;4.30;2.67;;;;;;;9.62;48.70;99623.75;5032923;28;20033;-54
2022/05/19 00:09:08;;;;;;;4.80;2.78;;;;;;;9.63;48.67;99609.41;5033075;28;20025;-53
2022/05/19 00:11:34;;;;;;;6.63;3.05;;;;;;;9.68;48.24;99613.56;5031621;28;20428;-51
2022/05/19 00:14:01;;;;;;;6.35;2.95;;;;;;;9.75;48.27;99612.94;5032866;28;20029;-54
2022/05/19 00:16:27;;;;;;;6.35;2.80;;;;;;;9.84;48.10;99616.69;5034100;28;20030;-51
2022/05/19 00:18:53;;;;;;;3.65;2.60;;;;;;;9.87;48.12;99605.75;5032634;28;20045;-51
2022/05/19 00:21:19;;;;;;;3.58;2.97;;;;;;;9.91;48.08;99599.19;5039871;28;20350;-50
2022/05/19 00:23:45;;;;;;;4.65;3.00;;;;;;;9.97;48.11;99588.97;5052575;28;20040;-52
2022/05/19 00:26:10;;;;;;;6.32;3.22;;;;;;;9.83;47.89;99560.69;5052924;28;20512;-50
2022/05/19 00:28:36;;;;;;;2.67;2.38;;;;;;;10.03;48.01;99585.78;5050928;28;20037;-52
2022/05/19 00:31:02;;;;;;;5.25;2.90;;;;;;;9.97;47.43;99594.31;5032333;28;20033;-52
2022/05/19 00:33:27;;;;;;;5.63;2.75;;;;;;;10.00;48.00;99596.72;5032611;28;20040;-56
2022/05/19 00:35:53;;;;;;;4.75;3.15;;;;;;;10.04;48.08;99615.09;5033016;28;20060;-59
2022/05/19 00:38:19;;;;;;;5.75;2.88;;;;;;;9.83;48.29;99579.41;5033741;28;20037;-52
2022/05/19 00:40:47;;;;;;;10.82;2.95;;;;;;;10.07;48.09;99622.00;5035189;28;20087;-49
2022/05/19 00:43:13;;;;;;;5.00;2.72;;;;;;;10.05;48.00;99602.53;5047110;28;20033;-49
2022/05/19 00:45:52;;;;;;;3.22;2.72;;;;;;;10.19;47.64;99612.97;5032382;28;20041;-54
2022/05/19 00:48:22;;;;;;;3.08;2.45;;;;;;;10.19;47.84;99610.28;5031190;28;20025;-54
2022/05/19 00:50:59;;;;;;;4.00;2.33;;;;;;;10.25;47.55;99605.41;5032262;28;20473;-52
2022/05/19 00:53:34;;;;;;;4.75;2.38;;;;;;;10.23;47.67;99615.38;5030990;28;20064;-59
2022/05/19 00:56:05;;;;;;;3.08;2.47;;;;;;;10.17;47.64;99616.72;5032051;28;20482;-51
2022/05/19 00:58:40;;;;;;;3.75;2.72;;;;;;;9.93;48.36;99576.81;5032722;28;20384;-51
2022/05/19 01:01:06;;;;;;;3.40;2.65;;;;;;;10.01;48.36;99612.66;5052099;28;20453;-51
2022/05/19 01:03:38;;;;;;;2.92;2.60;;;;;;;9.93;48.63;99603.56;5039335;28;20029;-50
2022/05/19 01:06:11;;;;;;;3.22;2.65;;;;;;;9.82;49.01;99602.59;5032177;28;20727;-51
2022/05/19 01:08:44;;;;;;;3.55;2.30;;;;;;;9.58;49.14;99584.06;5031707;28;20033;-48
2022/05/19 01:11:11;;;;;;;4.22;2.53;;;;;;;9.41;49.70;99580.06;5032053;28;20116;-53
2022/05/19 01:13:37;;;;;;;4.15;2.47;;;;;;;9.51;49.85;99598.88;5031827;28;20474;-51
2022/05/19 01:16:06;;;;;;;3.92;2.83;;;;;;;9.51;49.80;99601.53;5030709;28;20132;-51
2022/05/19 01:18:32;;;;;;;2.92;2.20;;;;;;;9.50;49.68;99603.38;5031730;28;20319;-53
2022/05/19 01:20:59;;;;;;;5.22;2.78;;;;;;;9.53;49.64;99602.28;5031495;28;20056;-49
2022/05/19 01:23:53;;;;;;;7.22;2.38;;;;;;;9.74;49.13;99610.41;5043565;28;20102;-51
2022/05/19 01:26:28;;;;;;;2.92;2.25;;;;;;;9.78;49.60;99614.53;5051362;28;20132;-50
2022/05/19 01:29:00;;;;;;;8.52;2.95;;;;;;;9.66;49.16;99591.47;5035789;28;20091;-52
2022/05/19 01:31:26;;;;;;;4.25;2.38;;;;;;;9.77;49.24;99610.16;5031603;28;20044;-50
2022/05/19 01:33:52;;;;;;;6.22;2.65;;;;;;;9.63;49.37;99577.34;5031775;28;20037;-49
2022/05/19 01:36:17;;;;;;;3.53;2.28;;;;;;;9.70;49.00;99583.06;5031664;28;20025;-48
2022/05/19 01:38:43;;;;;;;3.60;2.67;;;;;;;9.87;48.84;99611.09;5043949;28;20098;-51
2022/05/19 01:41:23;;;;;;;3.17;2.20;;;;;;;9.96;48.57;99612.16;5051386;28;20025;-50
2022/05/19 01:44:05;;;;;;;5.63;2.70;;;;;;;10.01;48.88;99606.44;5034930;28;20037;-51
2022/05/19 01:46:33;;;;;;;3.35;2.42;;;;;;;10.00;48.79;99602.06;5031348;28;20021;-49
2022/05/19 01:49:22;;;;;;;3.55;2.50;;;;;;;10.13;49.07;99620.66;5031201;28;20029;-48
2022/05/19 01:52:11;;;;;;;5.30;2.47;;;;;;;10.15;48.58;99608.00;5031160;28;20095;-49
2022/05/19 01:54:58;;;;;;;4.80;2.42;;;;;;;10.16;48.47;99607.88;5031073;28;20045;-50
2022/05/19 01:57:28;;;;;;;5.22;2.42;;;;;;;10.11;48.67;99602.03;5036713;28;20067;-53
2022/05/19 01:59:59;;;;;;;3.40;2.13;;;;;;;10.14;48.76;99600.94;5033309;28;20048;-53
2022/05/19 02:02:32;;;;;;;2.92;2.28;;;;;;;10.22;48.82;99600.31;5031287;28;20481;-49
2022/05/19 02:05:12;;;;;;;4.95;2.30;;;;;;;10.24;48.41;99595.69;5030056;28;20394;-51
2022/05/19 02:07:39;;;;;;;5.80;2.45;;;;;;;10.04;48.32;99564.25;5030905;28;20098;-49
2022/05/19 02:10:11;;;;;;;3.20;2.40;;;;;;;10.33;48.37;99601.13;5030955;28;20060;-51
2022/05/19 02:12:38;;;;;;;3.58;2.30;;;;;;;10.32;48.22;99603.91;5013970;28;20036;-53
2022/05/19 02:15:08;;;;;;;4.53;2.50;;;;;;;10.41;48.12;99602.31;5050895;28;20029;-55
2022/05/19 02:17:35;;;;;;;3.72;2.47;;;;;;;10.45;47.76;99599.28;5045403;28;20029;-52
2022/05/19 02:20:06;;;;;;;6.45;2.60;;;;;;;10.57;47.96;99602.75;5030875;28;20041;-51
2022/05/19 02:22:35;;;;;;;7.65;2.30;;;;;;;10.62;47.73;99605.88;5030999;28;20033;-51
2022/05/19 02:25:11;;;;;;;6.03;2.40;;;;;;;10.79;47.83;99613.44;5030685;28;20128;-52
2022/05/19 02:28:06;;;;;;;4.28;2.60;;;;;;;11.08;46.75;99602.06;5032411;28;20052;-55
2022/05/19 02:30:34;;;;;;;5.85;2.63;;;;;;;11.17;46.17;99603.97;5048462;28;20102;-52
2022/05/19 02:33:00;;;;;;;3.20;2.03;;;;;;;11.30;46.23;99601.06;5050634;28;20033;-57
2022/05/19 02:35:26;;;;;;;5.70;2.38;;;;;;;11.39;46.17;99602.91;5050953;28;20383;-56
2022/05/19 02:37:52;;;;;;;4.75;2.55;;;;;;;11.30;46.45;99591.19;5039673;28;20429;-52
2022/05/19 02:40:21;;;;;;;5.85;2.35;;;;;;;11.34;46.30;99594.44;5031641;28;20037;-54
2022/05/19 02:42:46;;;;;;;3.42;2.50;;;;;;;11.26;46.81;99607.69;5041141;28;20033;-54
2022/05/19 02:45:13;;;;;;;6.00;2.83;;;;;;;11.20;46.93;99603.69;5054597;28;20465;-56
2022/05/19 02:47:39;;;;;;;6.80;2.90;;;;;;;11.23;46.45;99607.94;5054684;28;20039;-52
2022/05/19 02:50:06;;;;;;;4.28;2.60;;;;;;;11.24;46.43;99583.69;5054542;28;20024;-51
2022/05/19 02:52:31;;;;;;;5.18;2.53;;;;;;;11.24;46.05;99561.41;5054600;28;20047;-56
2022/05/19 02:54:57;;;;;;;6.45;2.60;;;;;;;11.19;46.08;99532.31;5054576;28;20033;-53
2022/05/19 02:57:22;;;;;;;3.05;2.30;;;;;;;11.26;45.86;99509.34;5044353;28;20042;-53
2022/05/19 02:59:48;;;;;;;3.38;2.40;;;;;;;11.53;45.73;99529.31;5034448;28;20040;-52
2022/05/19 03:02:13;;;;;;;10.32;2.90;;;;;;;11.90;45.47;99557.34;5034407;28;20029;-50
2022/05/19 03:04:39;;;;;;;4.15;2.58;;;;;;;12.01;44.60;99534.91;5032939;28;20038;-53
2022/05/19 03:07:05;;;;;;;5.93;2.80;;;;;;;12.38;44.25;99561.06;5034962;28;20029;-50
2022/05/19 03:09:30;;;;;;;4.22;2.30;;;;;;;12.63;43.04;99567.66;5054751;28;20030;-51
2022/05/19 03:11:56;;;;;;;3.95;2.30;;;;;;;12.92;42.38;99572.16;5054240;28;20461;-50
2022/05/19 03:14:21;;;;;;;7.07;2.22;;;;;;;13.12;41.94;99569.38;5052478;28;20883;-49
2022/05/19 03:16:47;;;;;;;5.57;2.42;;;;;;;13.19;42.11;99557.09;5044392;28;20029;-51
2022/05/19 03:19:12;;;;;;;4.68;2.17;;;;;;;13.31;41.76;99557.75;5033959;28;20029;-52
2022/05/19 03:21:38;;;;;;;5.28;2.30;;;;;;;13.37;41.50;99569.72;5033902;28;20030;-50
2022/05/19 03:24:04;;;;;;;3.38;2.10;;;;;;;13.25;41.47;99538.66;5032522;28;20049;-52
2022/05/19 03:26:30;;;;;;;5.05;2.45;;;;;;;13.44;41.51;99562.81;5034159;28;20112;-54
2022/05/19 03:28:55;;;;;;;5.30;2.17;;;;;;;13.47;41.32;99559.81;5032429;28;20041;-50
2022/05/19 03:31:21;;;;;;;6.72;2.55;;;;;;;13.53;41.13;99555.69;5039834;28;20453;-54
2022/05/19 03:33:46;;;;;;;10.57;2.42;;;;;;;13.56;40.79;99552.69;5052297;28;20029;-52
2022/05/19 03:36:12;;;;;;;8.30;2.65;;;;;;;13.59;40.96;99544.31;5046507;28;20026;-52
2022/05/19 03:38:38;;;;;;;7.60;2.35;;;;;;;13.59;40.80;99554.22;5033829;28;20458;-51
2022/05/19 03:41:04;;;;;;;3.08;2.08;;;;;;;13.48;40.95;99552.56;5033869;28;20112;-57
2022/05/19 03:43:30;;;;;;;3.15;2.28;;;;;;;13.55;41.24;99568.97;5033785;28;20223;-52
2022/05/19 03:45:56;;;;;;;9.60;2.55;;;;;;;13.49;41.58;99557.81;5033727;28;20517;-51
2022/05/19 03:48:21;;;;;;;3.80;2.20;;;;;;;13.58;41.41;99569.53;5033482;28;20033;-49
2022/05/19 03:50:48;;;;;;;6.20;2.08;;;;;;;13.78;41.02;99580.19;5032039;28;20346;-52
2022/05/19 03:53:14;;;;;;;4.53;2.25;;;;;;;13.84;40.53;99574.19;5032891;28;20044;-52
2022/05/19 03:55:39;;;;;;;3.13;2.35;;;;;;;13.76;40.65;99584.88;5038571;28;20033;-50
2022/05/19 03:58:05;;;;;;;2.92;2.00;;;;;;;13.59;41.21;99584.66;5053202;28;20044;-55
2022/05/19 04:00:32;;;;;;;7.47;2.35;;;;;;;13.39;41.92;99585.72;5053727;28;20033;-52
2022/05/19 04:02:58;;;;;;;7.45;2.60;;;;;;;13.27;42.03;99587.75;5053044;28;20038;-52
2022/05/19 04:05:28;;;;;;;3.30;2.42;;;;;;;13.07;42.37;99567.16;5051730;28;20033;-49
2022/05/19 04:07:54;;;;;;;7.32;2.50;;;;;;;13.18;42.09;99586.78;5053241;28;20060;-52
2022/05/19 04:10:19;;;;;;;2.45;2.22;;;;;;;13.22;42.21;99585.50;5052695;28;20128;-52
2022/05/19 04:12:45;;;;;;;4.70;2.03;;;;;;;13.30;43.37;99582.94;5052643;28;20095;-53
2022/05/19 04:15:12;;;;;;;6.43;2.60;;;;;;;13.39;43.58;99588.41;5047782;28;20108;-48
2022/05/19 04:17:38;;;;;;;4.55;2.45;;;;;;;13.42;43.71;99575.53;5033102;28;20087;-50
2022/05/19 04:20:06;;;;;;;3.00;2.10;;;;;;;13.54;43.47;99584.28;5033724;28;20029;-54
2022/05/19 04:22:32;;;;;;;7.20;2.30;;;;;;;13.58;43.30;99576.72;5053035;28;20028;-52
2022/05/19 04:25:00;;;;;;;5.85;2.35;;;;;;;13.69;44.13;99586.44;5052785;28;20405;-54
2022/05/19 04:27:29;;;;;;;7.07;2.10;;;;;;;13.84;43.68;99589.47;5048326;28;20214;-57
2022/05/19 04:29:55;;;;;;;3.95;2.45;;;;;;;14.07;42.76;99579.13;5047359;28;20029;-51
2022/05/19 04:32:20;;;;;;;5.90;2.45;;;;;;;14.11;42.47;99553.59;5047271;28;20037;-51
2022/05/19 04:34:46;;;;;;;8.60;2.30;;;;;;;14.28;41.46;99556.44;5035940;28;20472;-56
2022/05/19 04:37:12;;;;;;;5.13;2.55;;;;;;;14.32;41.68;99582.06;5052753;28;20110;-54
2022/05/19 04:39:37;;;;;;;3.28;2.05;;;;;;;14.02;42.90;99593.03;5050923;28;20036;-54
2022/05/19 04:42:10;;;;;;;3.90;2.58;;;;;;;13.78;43.47;99588.25;5052679;28;20028;-54
2022/05/19 04:44:37;;;;;;;6.78;2.75;;;;;;;13.53;44.02;99592.47;5052739;28;20488;-54
2022/05/19 04:47:03;;;;;;;7.75;2.38;;;;;;;13.35;45.03;99596.78;5052341;28;20355;-55
2022/05/19 04:49:29;;;;;;;4.18;2.38;;;;;;;13.23;46.75;99592.56;5032303;28;20039;-54
2022/05/19 04:51:54;;;;;;;4.45;2.47;;;;;;;13.18;46.47;99594.84;5032245;28;20037;-50
2022/05/19 04:54:20;;;;;;;8.05;2.70;;;;;;;13.19;46.83;99591.16;5034837;28;20025;-52
2022/05/19 04:56:46;;;;;;;4.07;2.30;;;;;;;13.24;45.91;99596.94;5052142;28;20029;-53
2022/05/19 04:59:14;;;;;;;4.78;2.80;;;;;;;13.30;46.09;99599.06;5051896;28;20029;-53
2022/05/19 05:01:45;;;;;;;4.55;2.20;;;;;;;13.52;45.75;99601.53;5051785;28;20504;-53
2022/05/19 05:04:12;;;;;;;6.22;2.47;;;;;;;13.50;45.98;99604.38;5035369;28;20037;-52
2022/05/19 05:06:37;;;;;;;6.95;2.30;;;;;;;13.43;46.10;99596.06;5032329;28;20036;-52
2022/05/19 05:09:04;;;;;;;3.40;2.40;;;;;;;13.38;46.85;99605.53;5031966;28;20077;-52
2022/05/19 05:11:29;;;;;;;3.60;2.50;;;;;;;13.35;47.69;99607.53;5031733;28;20048;-48
2022/05/19 05:13:55;;;;;;;5.60;2.67;;;;;;;13.45;47.33;99602.16;5034106;28;20033;-50
2022/05/19 05:16:20;;;;;;;7.03;2.30;;;;;;;13.58;48.35;99606.31;5051559;28;20373;-50
2022/05/19 05:18:46;;;;;;;3.17;2.28;;;;;;;13.49;47.39;99581.16;5051745;28;20442;-53
2022/05/19 05:21:13;;;;;;;4.95;2.50;;;;;;;13.62;46.88;99603.19;5051638;28;20104;-55
2022/05/19 05:23:40;;;;;;;4.90;2.20;;;;;;;13.48;46.78;99612.59;5039809;28;20054;-54
2022/05/19 05:26:06;;;;;;;4.72;2.13;;;;;;;13.42;45.83;99593.47;5031837;28;20445;-51
2022/05/19 05:28:33;;;;;;;3.13;1.73;;;;;;;13.44;46.49;99596.91;5041102;28;20104;-52
2022/05/19 05:30:59;;;;;;;3.03;2.15;;;;;;;13.44;46.56;99589.69;5051206;28;20095;-54
2022/05/19 05:33:24;;;;;;;3.67;2.33;;;;;;;13.43;46.78;99590.69;5046842;28;20032;-53
2022/05/19 05:35:50;;;;;;;3.72;2.38;;;;;;;13.45;47.29;99580.63;5030713;28;20033;-52
2022/05/19 05:38:17;;;;;;;6.15;2.55;;;;;;;13.58;47.37;99593.72;5034307;28;20410;-53
2022/05/19 05:40:43;;;;;;;3.30;2.10;;;;;;;13.86;47.78;99598.25;5051264;28;20032;-52
2022/05/19 05:43:11;;;;;;;6.10;2.38;;;;;;;14.17;45.65;99595.22;5038623;28;20030;-51
2022/05/19 05:45:37;;;;;;;3.85;2.00;;;;;;;14.07;46.04;99595.28;5031226;28;20041;-52
2022/05/19 05:48:03;;;;;;;4.15;2.58;;;;;;;14.06;46.73;99588.22;5031067;28;20074;-50
2022/05/19 05:50:29;;;;;;;3.45;2.20;;;;;;;14.10;47.69;99594.97;5042076;28;20400;-52
2022/05/19 05:52:55;;;;;;;3.75;3.03;;;;;;;14.31;47.33;99591.16;5050839;28;20028;-53
2022/05/19 05:55:20;;;;;;;3.20;2.22;;;;;;;14.59;45.15;99588.34;5049251;28;20116;-51
2022/05/19 05:57:46;;;;;;;4.32;2.20;;;;;;;14.68;45.89;99592.78;5050494;28;20453;-52
2022/05/19 06:00:12;;;;;;;4.15;2.53;;;;;;;14.60;46.66;99587.34;5050850;28;20077;-56
2022/05/19 06:02:39;;;;;;;3.92;2.55;;;;;;;14.51;46.77;99589.13;5040924;28;20025;-50
2022/05/19 06:05:04;;;;;;;4.25;2.45;;;;;;;14.57;46.05;99584.97;5030792;28;20040;-51
2022/05/19 06:07:30;;;;;;;6.72;2.63;;;;;;;14.61;46.81;99591.72;5030796;28;20033;-50
2022/05/19 06:09:56;;;;;;;4.93;2.30;;;;;;;14.54;46.30;99598.75;5046098;28;20029;-53
2022/05/19 06:12:23;;;;;;;6.00;2.50;;;;;;;14.34;46.46;99596.22;5050950;28;20033;-48
2022/05/19 06:14:49;;;;;;;9.23;3.15;;;;;;;14.17;46.67;99596.06;5050308;28;20029;-51
2022/05/19 06:17:15;;;;;;;16.13;3.28;;;;;;;13.93;47.37;99597.50;5050355;28;20422;-53
2022/05/19 06:19:41;;;;;;;3.70;2.60;;;;;;;13.79;47.22;99589.94;5050775;28;20064;-51
2022/05/19 06:22:06;;;;;;;4.00;2.70;;;;;;;13.59;48.05;99590.03;5048988;28;20060;-49
2022/05/19 06:24:33;;;;;;;2.80;2.50;;;;;;;13.52;48.74;99585.41;5050282;28;20045;-52
2022/05/19 06:26:59;;;;;;;3.05;2.25;;;;;;;13.52;48.92;99580.03;5050280;28;20049;-53
2022/05/19 06:29:24;;;;;;;4.47;2.47;;;;;;;13.65;48.45;99583.22;5035666;28;20107;-50
2022/05/19 06:31:50;;;;;;;4.63;2.70;;;;;;;13.79;48.43;99573.81;5030772;28;20041;-53
2022/05/19 06:34:16;;;;;;;5.78;2.50;;;;;;;13.95;48.13;99583.91;5030327;28;20045;-55
2022/05/19 06:36:41;;;;;;;7.18;3.15;;;;;;;14.03;47.54;99583.13;5030609;28;20477;-50
2022/05/19 06:39:07;;;;;;;4.00;2.60;;;;;;;14.41;47.03;99593.75;5029341;28;20022;-53
2022/05/19 06:44:19;;;;;;;3.83;2.92;;;;;;;15.13;45.23;99592.81;5037306;28;20060;-58
2022/05/19 06:46:46;;;;;;;5.82;2.83;;;;;;;15.23;45.67;99596.25;5046555;28;20036;-57
2022/05/19 06:49:12;;;;;;;4.18;2.90;;;;;;;15.27;45.72;99586.81;5036955;28;20365;-52
2022/05/19 06:51:37;;;;;;;4.03;2.60;;;;;;;15.22;45.33;99583.78;5030569;28;20426;-56
2022/05/19 06:54:04;;;;;;;2.65;2.45;;;;;;;15.18;45.04;99587.78;5030121;28;20493;-52
2022/05/19 06:56:29;;;;;;;3.40;2.60;;;;;;;15.27;45.43;99591.34;5030073;28;20033;-54
2022/05/19 06:58:56;;;;;;;3.40;2.60;;;;;;;15.20;45.70;99597.41;5038316;28;20349;-53
2022/05/19 07:01:22;;;;;;;4.70;2.40;;;;;;;15.01;45.75;99598.47;5040986;28;20181;-57
2022/05/19 07:03:47;;;;;;;5.50;3.03;;;;;;;14.86;46.70;99605.44;5049182;28;20138;-50
2022/05/19 07:06:13;;;;;;;6.38;2.80;;;;;;;14.70;47.54;99584.56;5050122;28;20162;-55
2022/05/19 07:08:38;;;;;;;2.70;2.50;;;;;;;14.83;46.29;99605.75;5036082;28;20104;-54
2022/05/19 07:11:05;;;;;;;5.50;3.00;;;;;;;14.80;46.42;99606.06;5036803;28;20029;-58
2022/05/19 07:13:31;;;;;;;3.35;2.78;;;;;;;14.62;46.72;99623.94;5049320;28;20108;-56
2022/05/19 07:15:57;;;;;;;3.90;2.63;;;;;;;14.35;47.33;99619.47;5042013;28;20083;-54
2022/05/19 07:18:23;;;;;;;3.30;2.45;;;;;;;14.13;48.04;99597.38;5036554;28;20033;-51
2022/05/19 07:20:49;;;;;;;2.42;2.22;;;;;;;13.81;47.10;99595.16;5048555;28;20067;-54
2022/05/19 07:23:24;;;;;;;3.45;2.10;;;;;;;13.57;47.63;99588.50;5050070;28;20037;-58
2022/05/19 07:25:51;;;;;;;3.22;2.38;;;;;;;13.39;49.23;99601.84;5049946;28;20041;-53
2022/05/19 07:28:18;;;;;;;4.68;2.35;;;;;;;13.29;50.32;99596.50;5036053;28;20048;-55
2022/05/19 07:30:46;;;;;;;4.10;3.13;;;;;;;13.42;51.19;99609.63;5054003;28;20028;-56
2022/05/19 07:33:12;;;;;;;6.95;3.30;;;;;;;13.42;51.13;99610.47;5051201;28;20136;-58
2022/05/19 07:35:39;;;;;;;7.50;3.55;;;;;;;13.40;51.69;99604.41;5047089;28;20091;-56
2022/05/19 07:38:05;;;;;;;6.28;3.90;;;;;;;13.38;52.09;99602.84;5037701;28;20029;-52
2022/05/19 07:40:31;;;;;;;9.45;3.85;;;;;;;13.39;52.37;99607.22;5033404;28;20034;-53
2022/05/19 07:43:35;;;;;;;6.82;4.40;;;;;;;13.34;52.73;99605.84;5033261;28;20105;-55
2022/05/19 07:45:45;;;;;;;7.68;4.30;;;;;;;13.45;53.04;99582.47;5043471;28;20037;-53
2022/05/19 07:48:10;;;;;;;9.55;4.35;;;;;;;13.56;52.60;99582.28;5033308;28;20374;-55
2022/05/19 07:50:36;;;;;;;7.20;4.15;;;;;;;13.80;52.83;99588.94;5050182;28;20228;-55
2022/05/19 07:53:02;;;;;;;10.45;3.90;;;;;;;14.12;52.37;99589.47;5052581;28;20105;-56
2022/05/19 07:55:27;;;;;;;7.07;4.20;;;;;;;14.33;51.25;99589.97;5051657;28;20515;-54
2022/05/19 07:57:54;;;;;;;5.13;3.63;;;;;;;14.54;51.11;99590.69;5044184;28;20047;-55
2022/05/19 08:00:20;;;;;;;5.97;3.35;;;;;;;14.80;50.42;99579.13;5048619;28;20112;-57
2022/05/19 08:02:46;;;;;;;4.63;3.10;;;;;;;15.10;49.34;99582.34;5052302;28;20124;-55
2022/05/19 08:05:11;;;;;;;4.85;3.13;;;;;;;15.27;48.05;99586.81;5051530;28;20094;-55
2022/05/19 08:07:37;;;;;;;4.63;3.13;;;;;;;15.51;48.27;99574.47;5040176;28;20037;-57
2022/05/19 08:10:20;;;;;;;8.48;3.17;;;;;;;15.96;47.02;99564.34;5052904;28;20532;-55
2022/05/19 08:15:38;;;;;;;7.30;3.10;;;;;;;17.01;44.88;99564.72;5051829;28;20100;-55
2022/05/19 08:18:05;;;;;;;6.20;3.30;;;;;;;17.06;44.29;99573.16;5052854;28;20025;-54
2022/05/19 08:20:31;;;;;;;10.57;3.35;;;;;;;16.97;44.59;99560.63;5051580;28;20040;-54
2022/05/19 08:22:57;;;;;;;10.18;3.35;;;;;;;17.29;42.74;99548.91;5049706;28;20035;-54
2022/05/19 08:25:26;;;;;;;4.18;3.00;;;;;;;17.92;41.69;99548.94;5033502;28;20135;-54
2022/05/19 08:27:55;;;;;;;9.80;2.83;;;;;;;18.50;39.48;99532.28;5032710;28;20466;-57
2022/05/19 08:30:21;;;;;;;5.90;2.50;;;;;;;19.16;38.30;99546.25;5040759;28;20500;-54
2022/05/19 08:32:47;;;;;;;6.97;2.78;;;;;;;19.72;37.90;99542.16;5045591;28;20103;-55
2022/05/19 08:35:13;;;;;;;5.97;2.33;;;;;;;20.26;37.12;99548.22;5033749;28;20458;-58
2022/05/19 08:37:39;;;;;;;3.15;2.50;;;;;;;20.42;34.78;99545.22;5037403;28;20099;-55
2022/05/19 08:40:05;;;;;;;3.85;2.30;;;;;;;20.39;35.09;99556.47;5048718;28;20065;-61
2022/05/19 08:42:36;;;;;;;4.80;2.70;;;;;;;20.51;35.08;99556.78;5032354;28;20033;-58
2022/05/19 08:45:05;;;;;;;6.53;2.63;;;;;;;20.51;34.63;99554.94;5043441;28;20457;-54
2022/05/19 08:47:37;;;;;;;3.65;2.40;;;;;;;20.60;34.25;99555.59;5035287;28;20033;-56
2022/05/19 08:50:17;;;;;;;4.97;2.50;;;;;;;20.98;34.52;99546.31;5047564;28;20036;-55
2022/05/19 08:52:46;;;;;;;6.45;2.90;;;;;;;21.09;34.09;99544.91;5042592;28;20049;-56
2022/05/19 08:55:15;;;;;;;3.92;2.90;;;;;;;21.20;33.03;99548.94;5031642;28;20033;-56
2022/05/19 08:58:08;;;;;;;4.45;2.72;;;;;;;21.45;33.92;99543.84;5036010;28;20124;-56
2022/05/19 09:00:42;;;;;;;9.32;3.28;;;;;;;21.28;33.04;99537.91;5051141;28;20143;-57
2022/05/19 09:03:19;;;;;;;5.00;2.78;;;;;;;20.86;33.04;99547.91;5049707;28;20044;-55
2022/05/19 09:05:59;;;;;;;3.22;2.38;;;;;;;20.08;34.30;99536.75;5033211;28;20281;-58
2022/05/19 09:08:51;;;;;;;2.83;2.63;;;;;;;20.01;34.70;99543.13;5044710;28;20550;-56
2022/05/19 09:11:19;;;;;;;3.72;2.50;;;;;;;20.15;34.83;99536.81;5031824;28;20041;-59
2022/05/19 09:13:45;;;;;;;3.20;2.47;;;;;;;20.40;35.07;99535.59;5035466;28;20121;-58
2022/05/19 09:16:17;;;;;;;5.88;2.50;;;;;;;20.53;33.96;99534.88;5051169;28;20475;-57
2022/05/19 09:19:11;;;;;;;2.20;2.00;;;;;;;20.32;34.04;99550.16;5039278;28;20108;-55
2022/05/19 09:21:40;;;;;;;4.18;2.13;;;;;;;19.99;33.95;99550.63;5048393;28;20052;-51
2022/05/19 09:24:08;;;;;;;4.28;2.42;;;;;;;19.82;34.41;99496.53;5051114;28;20401;-57
2022/05/19 09:26:46;;;;;;;3.20;2.28;;;;;;;20.31;34.23;99541.13;5049766;28;20041;-59
2022/05/19 09:29:29;;;;;;;4.53;2.38;;;;;;;20.19;33.72;99538.09;5049820;28;20036;-56
2022/05/19 09:32:05;;;;;;;3.60;2.47;;;;;;;19.82;34.21;99539.13;5050717;28;20619;-58
2022/05/19 09:34:34;;;;;;;4.43;2.70;;;;;;;19.70;34.25;99530.66;5051376;28;20055;-55
2022/05/19 09:37:03;;;;;;;2.28;1.90;;;;;;;19.65;34.43;99531.22;5051525;28;20029;-55
2022/05/19 09:39:35;;;;;;;3.20;2.05;;;;;;;19.46;34.43;99527.22;5044432;28;20044;-53
2022/05/19 09:42:10;;;;;;;4.57;2.28;;;;;;;19.25;34.91;99509.00;5039058;28;20389;-51
2022/05/19 09:44:40;;;;;;;9.30;2.13;;;;;;;19.29;34.75;99532.88;5050558;28;20033;-53
2022/05/19 09:47:33;;;;;;;2.88;1.98;;;;;;;19.32;34.79;99531.63;5051294;28;20021;-58
2022/05/19 09:50:07;;;;;;;3.95;1.92;;;;;;;19.19;33.94;99511.44;5049008;28;20025;-58
2022/05/19 09:52:33;;;;;;;1.73;1.63;;;;;;;18.88;33.80;99533.28;5048737;28;20021;-56
2022/05/19 09:55:06;;;;;;;3.45;1.65;;;;;;;19.18;34.51;99522.47;5042371;28;20075;-55
2022/05/19 09:57:34;;;;;;;3.30;1.58;;;;;;;19.76;33.74;99527.16;5030513;28;20025;-53
2022/05/19 10:00:04;;;;;;;3.78;1.33;;;;;;;20.13;31.98;99516.28;5037905;28;20326;-50
2022/05/19 10:02:35;;;;;;;1.88;1.40;;;;;;;20.25;32.13;99513.88;5043447;28;20044;-55
2022/05/19 10:05:05;;;;;;;1.63;1.30;;;;;;;19.90;31.54;99507.25;5029559;28;20029;-54
2022/05/19 10:07:44;;;;;;;4.05;1.30;;;;;;;19.53;32.85;99511.84;5030515;28;20029;-56
2022/05/19 10:10:25;;;;;;;3.88;1.40;;;;;;;18.94;33.43;99514.41;5041676;28;20033;-59
2022/05/19 10:12:54;;;;;;;2.22;1.20;;;;;;;18.71;33.14;99509.03;5051217;28;20029;-60
2022/05/19 10:15:22;;;;;;;4.07;1.25;;;;;;;18.87;33.41;99512.63;5044706;28;20044;-53
2022/05/19 10:18:06;;;;;;;3.88;1.30;;;;;;;18.95;33.46;99493.53;5050786;28;20033;-62
2022/05/19 10:20:42;;;;;;;2.28;1.50;;;;;;;19.31;32.91;99498.25;5049737;28;20028;-60
2022/05/19 10:23:23;;;;;;;3.08;1.60;;;;;;;19.61;32.14;99494.59;5050196;28;20060;-54
2022/05/19 10:26:07;;;;;;;3.90;1.42;;;;;;;19.91;31.96;99495.41;5042836;28;20454;-60
2022/05/19 10:32:00;;;;;;;3.20;1.23;;;;;;;20.18;30.38;99498.38;5048347;28;20075;-60
2022/05/19 10:34:38;;;;;;;1.42;1.13;;;;;;;19.98;31.09;99492.75;5050558;28;20033;-60
2022/05/19 10:37:22;;;;;;;2.03;1.30;;;;;;;19.61;30.93;99497.31;5034149;28;20038;-56
2022/05/19 10:40:03;;;;;;;2.90;1.48;;;;;;;19.28;31.70;99487.75;5030856;28;20144;-56
2022/05/19 10:43:00;;;;;;;3.00;1.25;;;;;;;19.10;32.62;99485.41;5044468;28;20040;-59
2022/05/19 10:45:46;;;;;;;2.97;1.30;;;;;;;18.93;33.23;99503.75;5037974;28;20049;-60
2022/05/19 10:48:33;;;;;;;3.45;1.50;;;;;;;18.83;32.94;99495.88;5042604;28;20036;-61
2022/05/19 10:51:22;;;;;;;2.67;1.33;;;;;;;18.67;33.16;99499.59;5047908;28;20485;-62
2022/05/19 10:54:08;;;;;;;1.55;1.20;;;;;;;18.19;33.14;99495.28;5049701;28;20040;-58
2022/05/19 10:56:39;;;;;;;;;;;;;;;18.37;33.39;99504.97;5048203;28;20076;-61
2022/05/19 10:59:38;;;;;;;2.70;1.33;;;;;;;18.45;32.92;99485.91;5050324;28;19916;-59
2022/05/19 11:03:02;;;;;;;2.80;1.52;;;;;;;18.96;32.61;99488.97;5050256;28;20492;-62
2022/05/19 11:05:52;;;;;;;2.17;1.40;;;;;;;18.97;31.78;99483.34;5049944;28;20468;-61
2022/05/19 11:08:20;;;;;;;1.65;1.30;;;;;;;18.59;31.72;99467.16;5034997;28;20179;-55
2022/05/19 11:10:59;;;;;;;1.40;1.10;;;;;;;18.44;32.91;99484.22;5031397;28;20049;-57
2022/05/19 11:13:55;;;;;;;1.52;1.33;;;;;;;18.50;32.39;99480.78;5032020;28;20061;-61
2022/05/19 11:16:42;;;;;;;1.60;1.45;;;;;;;18.88;32.51;99484.47;5025277;28;20052;-59
2022/05/19 11:19:28;;;;;;;1.60;1.50;;;;;;;19.17;31.92;99469.25;5051376;28;20120;-61
2022/05/19 11:22:09;;;;;;;;;;;;;;;19.70;31.12;99473.59;5050744;28;20484;-57
2022/05/19 11:27:38;;;;;;;;;;;;;;;19.78;31.33;99465.38;5051502;28;20045;-60
2022/05/19 11:30:17;;;;;;;5.30;1.70;;;;;;;19.39;31.59;99472.00;5046780;28;19978;-58
2022/05/19 11:32:46;;;;;;;5.43;1.58;;;;;;;18.99;32.09;99472.34;5031189;28;20072;-57
2022/05/19 11:35:34;;;;;;;4.15;1.52;;;;;;;18.97;32.53;99452.69;5031334;28;20046;-54
2022/05/19 11:38:15;;;;;;;3.58;1.50;;;;;;;18.93;32.65;99468.47;5034949;28;20045;-56
2022/05/19 11:40:53;;;;;;;4.97;1.63;;;;;;;18.93;32.39;99463.03;5038023;28;20080;-58
2022/05/19 11:43:40;;;;;;;2.55;1.55;;;;;;;19.16;32.12;99457.53;5037946;28;20379;-56
2022/05/19 11:46:17;;;;;;;4.55;2.00;;;;;;;19.41;31.88;99454.50;5052520;28;20036;-61
2022/05/19 11:55:37;;;;;;;5.90;1.60;;;;;;;19.39;32.02;99442.16;5065781;28;20064;-54
2022/05/19 11:58:17;;;;;;;2.38;1.60;;;;;;;19.01;32.29;99438.56;5045446;28;20033;-57
2022/05/19 12:00:58;;;;;;;2.00;1.77;;;;;;;18.82;32.90;99433.69;5037445;28;20419;-52
2022/05/19 12:03:50;;;;;;;3.17;2.05;;;;;;;18.87;32.77;99428.53;5037850;28;20385;-57
2022/05/19 12:06:20;;;;;;;4.55;1.85;;;;;;;18.74;33.12;99432.75;5038702;28;20036;-55
2022/05/19 12:08:57;;;;;;;2.95;1.83;;;;;;;18.86;34.66;99435.00;5034089;28;20037;-58